Time;durP1;ratioP1;P1;durP2;ratioP2;P2;SDS_P1;SDS_P2;PMS_P1;PMS_P2;Temp;Humidity;BMP_temperature;BMP_pressure;BME280_temperature;BME280_humidity;BME280_pressure;Samples;Min_cycle;Max_cycle;Signal;HPM_P1;HPM_P2
2022/11/05 00:09:40;;;;;;;12.82;8.43;;;;;;;21.47;59.99;99497.03;20987796;28;20387;-73
2022/11/05 00:19:42;;;;;;;11.48;8.25;;;;;;;21.46;60.27;99497.16;21004845;28;20051;-75
2022/11/05 00:29:42;;;;;;;12.30;8.02;;;;;;;21.44;59.96;99482.31;21016335;28;20060;-75
2022/11/05 00:39:43;;;;;;;12.40;8.48;;;;;;;21.45;60.10;99483.16;20991400;28;20048;-74
2022/11/05 00:49:45;;;;;;;10.35;7.45;;;;;;;21.45;59.89;99485.81;20997352;28;20108;-79
2022/11/05 00:59:46;;;;;;;9.40;7.07;;;;;;;21.43;60.32;99493.00;20991138;28;20040;-74
2022/11/05 01:09:46;;;;;;;10.30;6.97;;;;;;;21.43;59.99;99496.50;20956940;28;20503;-75
2022/11/05 01:19:47;;;;;;;8.18;6.70;;;;;;;21.44;60.13;99484.97;20910035;28;20277;-74
2022/11/05 01:29:48;;;;;;;7.68;5.97;;;;;;;21.44;60.15;99484.13;20918916;28;20039;-74
2022/11/05 01:39:48;;;;;;;9.32;6.20;;;;;;;21.43;59.76;99490.38;20953952;28;20467;-74
2022/11/05 01:49:59;;;;;;;9.38;6.50;;;;;;;21.43;60.30;99503.53;20941135;28;20028;-74
2022/11/05 02:00:01;;;;;;;7.07;5.88;;;;;;;21.42;59.87;99526.44;20990418;28;20097;-74
2022/11/05 02:10:06;;;;;;;6.30;5.35;;;;;;;21.42;59.85;99518.53;20978279;28;20068;-74
2022/11/05 02:20:43;;;;;;;7.00;5.40;;;;;;;21.44;59.68;99521.81;20988781;28;20048;-75
2022/11/05 02:31:08;;;;;;;8.52;5.32;;;;;;;21.42;59.72;99520.31;20973132;28;20497;-75
2022/11/05 02:41:11;;;;;;;7.28;4.65;;;;;;;21.41;59.89;99522.13;20981467;28;20037;-74
2022/11/05 02:51:50;;;;;;;6.28;4.93;;;;;;;21.39;59.89;99531.97;20979421;28;20040;-75
2022/11/05 03:01:51;;;;;;;6.05;4.43;;;;;;;21.36;59.57;99540.16;20991119;28;20096;-75
2022/11/05 03:12:17;;;;;;;6.05;4.80;;;;;;;21.37;59.69;99536.56;20992733;28;20040;-74
2022/11/05 03:22:35;;;;;;;5.00;4.22;;;;;;;21.36;59.84;99548.06;20998640;28;20043;-75
2022/11/05 03:32:40;;;;;;;6.47;4.30;;;;;;;21.38;59.75;99566.34;20997237;28;20573;-74
2022/11/05 03:42:45;;;;;;;5.50;4.28;;;;;;;21.34;60.03;99567.59;20983052;28;20040;-75
2022/11/05 03:53:10;;;;;;;4.93;3.78;;;;;;;21.35;59.97;99580.63;21032728;28;20040;-74
2022/11/05 04:03:11;;;;;;;4.38;3.45;;;;;;;21.35;59.47;99590.31;21039624;27;20075;-74
2022/11/05 04:13:23;;;;;;;4.05;3.28;;;;;;;21.32;60.04;99564.28;21037805;28;20505;-75
2022/11/05 04:33:58;;;;;;;5.22;3.47;;;;;;;21.32;59.93;99561.63;21039338;28;20048;-74
2022/11/05 04:43:59;;;;;;;3.88;2.78;;;;;;;21.32;59.95;99546.66;21041050;28;20043;-74
2022/11/05 04:54:00;;;;;;;6.70;3.40;;;;;;;21.32;59.44;99562.47;21030999;28;20040;-73
2022/11/05 05:04:00;;;;;;;3.78;3.20;;;;;;;21.32;59.67;99572.19;20984185;28;20060;-74
2022/11/05 05:14:00;;;;;;;4.13;2.70;;;;;;;21.35;59.48;99570.09;21000606;28;20036;-73
2022/11/05 05:24:02;;;;;;;3.60;2.58;;;;;;;21.42;59.73;99565.94;20980690;28;20025;-75
2022/11/05 05:34:04;;;;;;;2.90;2.60;;;;;;;21.47;59.84;99568.16;20981056;28;20139;-75
2022/11/05 05:44:05;;;;;;;2.33;2.13;;;;;;;21.52;59.69;99589.63;20975934;28;20112;-74
2022/11/05 05:54:05;;;;;;;2.50;2.22;;;;;;;21.57;59.92;99595.31;20982581;28;20041;-75
2022/11/05 06:04:07;;;;;;;2.28;2.08;;;;;;;21.62;59.69;99617.78;20993925;28;21264;-77
2022/11/05 06:14:10;;;;;;;2.40;2.20;;;;;;;21.65;59.56;99630.69;20982486;28;20074;-76
2022/11/05 06:24:10;;;;;;;1.95;1.80;;;;;;;21.68;59.81;99657.56;20970840;28;20041;-75
2022/11/05 06:34:11;;;;;;;2.40;2.08;;;;;;;21.69;59.54;99653.97;20989577;28;20041;-75
2022/11/05 06:44:12;;;;;;;2.38;2.05;;;;;;;21.76;59.97;99675.31;20991776;28;20047;-76
2022/11/05 06:54:13;;;;;;;2.25;2.00;;;;;;;21.79;59.69;99679.47;20995207;27;20044;-75
2022/11/05 07:04:13;;;;;;;4.90;1.65;;;;;;;21.82;59.47;99684.47;21000135;28;20063;-75
2022/11/05 07:14:14;;;;;;;4.30;2.00;;;;;;;21.87;60.06;99675.19;20998072;28;20036;-75
2022/11/05 07:24:14;;;;;;;4.65;2.05;;;;;;;21.91;60.17;99676.56;20973412;28;20098;-79
2022/11/05 07:34:14;;;;;;;4.88;2.30;;;;;;;21.95;60.41;99681.53;20984785;28;20131;-74
2022/11/05 07:44:16;;;;;;;6.03;3.03;;;;;;;21.98;61.01;99681.25;21000032;28;20444;-73
2022/11/05 07:54:16;;;;;;;6.37;3.10;;;;;;;22.01;61.04;99688.91;21009126;28;20024;-74
2022/11/05 08:04:17;;;;;;;4.93;3.10;;;;;;;22.02;60.90;99685.25;20968430;28;20946;-75
2022/11/05 08:14:17;;;;;;;4.10;3.10;;;;;;;22.03;61.03;99677.25;20955463;28;20076;-74
2022/11/05 08:24:17;;;;;;;8.63;3.47;;;;;;;22.06;60.62;99665.56;20972558;27;20043;-75
2022/11/05 08:34:18;;;;;;;6.32;3.50;;;;;;;22.10;61.07;99655.56;20982900;28;20059;-75
2022/11/05 08:44:18;;;;;;;4.95;3.80;;;;;;;22.08;60.26;99671.50;20997798;28;20040;-78
2022/11/05 08:54:19;;;;;;;5.65;2.55;;;;;;;21.68;51.14;99664.63;20980749;28;21361;-82
2022/11/05 09:04:19;;;;;;;3.72;3.00;;;;;;;21.80;54.80;99683.78;20995367;27;20045;-76
2022/11/05 09:14:19;;;;;;;4.60;3.00;;;;;;;21.85;56.28;99703.47;20991800;28;20048;-88
2022/11/05 09:24:20;;;;;;;6.10;2.70;;;;;;;21.70;53.92;99718.03;20951255;28;20035;-83
2022/11/05 09:34:20;;;;;;;5.00;2.53;;;;;;;21.69;54.73;99727.75;20991919;28;20129;-80
2022/11/05 09:44:47;;;;;;;4.45;2.50;;;;;;;21.71;55.48;99717.06;20987585;28;20133;-84
2022/11/05 09:54:49;;;;;;;4.88;2.85;;;;;;;21.72;56.12;99713.47;20974842;28;20443;-80
2022/11/05 10:04:56;;;;;;;4.15;2.80;;;;;;;21.72;56.49;99716.91;20980174;28;20044;-85
2022/11/05 10:15:15;;;;;;;4.75;2.58;;;;;;;21.74;56.72;99717.63;20980712;28;20429;-78
2022/11/05 10:25:19;;;;;;;3.22;2.63;;;;;;;21.77;56.53;99720.97;20984320;28;20045;-85
2022/11/05 10:35:23;;;;;;;3.28;2.45;;;;;;;21.75;56.46;99706.13;20987596;28;20135;-79
2022/11/05 10:45:48;;;;;;;3.55;2.28;;;;;;;21.77;56.37;99713.06;20985613;28;20134;-83
2022/11/05 10:55:49;;;;;;;3.10;2.13;;;;;;;21.78;56.52;99731.34;20985367;28;20071;-79
2022/11/05 11:05:58;;;;;;;3.30;2.27;;;;;;;21.78;56.62;99727.91;20992123;28;21111;-80
2022/11/05 11:16:18;;;;;;;3.83;2.97;;;;;;;21.78;56.74;99759.53;21006906;28;20040;-78
2022/11/05 11:26:20;;;;;;;3.78;3.15;;;;;;;21.80;56.29;99733.84;21001886;28;20040;-79
2022/11/05 11:36:25;;;;;;;4.70;3.83;;;;;;;21.86;56.90;99736.78;21005015;28;20503;-79
2022/11/05 11:46:31;;;;;;;5.00;3.75;;;;;;;21.87;56.55;99743.72;21004659;28;20047;-79
2022/11/05 11:56:46;;;;;;;5.72;4.35;;;;;;;21.86;56.68;99746.47;20992574;28;20045;-80
2022/11/05 12:07:41;;;;;;;4.63;3.75;;;;;;;21.85;56.72;99734.25;21002551;27;20071;-80
2022/11/05 12:17:56;;;;;;;5.60;3.72;;;;;;;21.85;56.29;99736.88;20853880;28;20053;-79
2022/11/05 12:28:09;;;;;;;4.18;3.67;;;;;;;21.85;56.20;99765.88;20917592;28;20513;-84
2022/11/05 12:38:09;;;;;;;4.25;3.42;;;;;;;21.86;55.47;99772.81;21006627;28;21717;-79
2022/11/05 12:48:39;;;;;;;24.08;4.47;;;;;;;21.82;55.19;99769.63;20996089;28;20449;-78
2022/11/05 12:59:10;;;;;;;10.27;3.72;;;;;;;21.85;55.93;99786.97;20974176;28;20059;-78
2022/11/05 13:09:38;;;;;;;8.35;3.30;;;;;;;21.87;57.30;99793.78;20958806;28;20442;-78
2022/11/05 13:19:51;;;;;;;10.43;4.03;;;;;;;21.90;57.36;99796.13;20971842;28;20043;-77
2022/11/05 13:29:55;;;;;;;;;;;;;;;21.90;57.53;99801.41;20985042;28;20115;-77
2022/11/05 13:39:59;;;;;;;8.95;4.90;;;;;;;21.93;57.84;99810.00;20976224;28;20309;-77
2022/11/05 13:50:12;;;;;;;8.73;4.57;;;;;;;21.91;57.43;99807.53;20990482;28;20066;-75
2022/11/05 14:00:20;;;;;;;;;;;;;;;21.91;57.94;99821.53;20983949;28;20097;-78
2022/11/05 14:10:27;;;;;;;5.47;4.60;;;;;;;21.89;57.84;99828.72;21003710;28;19928;-77
2022/11/05 14:20:32;;;;;;;5.90;4.80;;;;;;;21.91;57.98;99832.06;20975902;28;20044;-78
2022/11/05 14:30:46;;;;;;;8.20;4.93;;;;;;;21.94;58.41;99848.59;20979297;28;20044;-75
2022/11/05 14:40:48;;;;;;;6.82;5.18;;;;;;;21.94;58.96;99857.31;20964337;28;20063;-77
2022/11/05 14:50:49;;;;;;;8.27;5.27;;;;;;;21.95;58.76;99866.03;20963466;28;20036;-82
2022/11/05 15:00:50;;;;;;;9.27;5.70;;;;;;;21.95;59.00;99869.53;21011558;28;20044;-81
2022/11/05 15:10:55;;;;;;;9.00;5.80;;;;;;;21.95;59.15;99871.31;21002892;28;20040;-82
2022/11/05 15:20:59;;;;;;;7.07;5.65;;;;;;;21.96;58.89;99881.75;20979862;28;20048;-78
2022/11/05 15:31:02;;;;;;;10.00;5.47;;;;;;;21.98;58.90;99886.88;20919587;27;20050;-79
2022/11/05 15:41:23;;;;;;;8.88;5.50;;;;;;;21.97;59.47;99891.31;20988726;28;20044;-78
2022/11/05 15:51:25;;;;;;;8.50;5.57;;;;;;;21.97;59.33;99903.66;20967714;28;20040;-76
2022/11/05 16:01:51;;;;;;;8.47;6.17;;;;;;;21.98;59.03;99913.25;20978090;28;20474;-84
2022/11/05 16:12:34;;;;;;;9.40;6.13;;;;;;;21.99;59.12;99925.47;21004669;27;20411;-83
2022/11/05 16:22:45;;;;;;;7.40;5.72;;;;;;;21.98;58.98;99931.69;20785559;28;20076;-81
2022/11/05 16:32:46;;;;;;;7.87;5.50;;;;;;;21.98;59.13;99952.78;20989675;28;20032;-81
2022/11/05 16:42:50;;;;;;;6.72;5.63;;;;;;;21.98;58.83;99952.78;20984169;28;20040;-82
2022/11/05 16:52:51;;;;;;;7.15;5.05;;;;;;;21.98;59.19;99965.97;21006985;28;20043;-82
2022/11/05 17:02:54;;;;;;;6.68;4.70;;;;;;;21.97;58.99;99977.47;20979755;27;20086;-84
2022/11/05 17:12:55;;;;;;;7.22;4.78;;;;;;;21.96;58.99;99987.19;20986664;28;20048;-84
2022/11/05 17:22:57;;;;;;;5.80;4.75;;;;;;;21.94;59.12;99997.03;20994766;28;20709;-90
2022/11/05 17:32:58;;;;;;;;;;;;;;;21.92;58.34;100004.22;20964355;27;20053;-87
2022/11/05 17:42:58;;;;;;;7.82;4.32;;;;;;;21.91;58.67;100011.31;21023389;27;20287;-86
2022/11/05 17:52:58;;;;;;;7.22;4.30;;;;;;;21.88;58.48;100014.19;21008288;28;20509;-87
2022/11/05 18:02:59;;;;;;;5.45;3.97;;;;;;;21.92;58.50;100025.31;21017281;28;20159;-87
2022/11/05 18:12:59;;;;;;;6.65;3.90;;;;;;;21.96;58.25;100026.75;20993210;28;20041;-89
2022/11/05 18:23:00;;;;;;;6.93;3.47;;;;;;;21.98;58.19;100039.78;21009651;28;20036;-88
2022/11/05 18:33:01;;;;;;;4.72;3.80;;;;;;;22.05;58.30;100051.47;21055058;28;20044;-89
2022/11/05 18:43:02;;;;;;;4.97;3.80;;;;;;;22.10;58.22;100067.72;21022770;28;20043;-84
2022/11/05 18:53:02;;;;;;;21.25;14.80;;;;;;;22.18;58.71;100082.88;21054025;27;20043;-84
2022/11/05 19:03:04;;;;;;;32.17;22.85;;;;;;;22.26;58.92;100090.94;21021171;28;20058;-83
2022/11/05 19:13:04;;;;;;;37.90;28.75;;;;;;;22.31;59.47;100109.03;21024008;28;20151;-86
2022/11/05 19:23:05;;;;;;;37.38;27.98;;;;;;;22.27;59.56;100108.44;21039225;28;20151;-84
2022/11/05 19:33:07;;;;;;;37.20;27.25;;;;;;;22.27;59.58;100126.09;21078080;28;20036;-85
2022/11/05 19:43:08;;;;;;;33.65;24.42;;;;;;;22.28;59.10;100138.31;21048410;27;20520;-83
2022/11/05 19:53:09;;;;;;;32.38;23.85;;;;;;;22.23;58.96;100159.81;21041413;28;20060;-84
2022/11/05 20:03:13;;;;;;;31.08;23.10;;;;;;;22.21;59.22;100175.75;21052339;28;20051;-85
2022/11/05 20:13:14;;;;;;;26.25;20.27;;;;;;;22.23;58.69;100181.72;21048381;28;20028;-86
2022/11/05 20:23:18;;;;;;;24.73;18.67;;;;;;;22.17;58.89;100184.88;21060365;27;20056;-87
2022/11/05 20:33:18;;;;;;;24.35;17.42;;;;;;;22.20;58.93;100189.06;21035115;28;20722;-85
2022/11/05 20:43:19;;;;;;;22.83;17.17;;;;;;;22.17;58.76;100203.34;21039441;28;20074;-86
2022/11/05 20:53:19;;;;;;;23.70;15.80;;;;;;;22.19;59.06;100205.84;21018426;28;20032;-83
2022/11/05 21:03:20;;;;;;;20.08;14.93;;;;;;;22.14;59.25;100213.31;21016516;28;20037;-77
2022/11/05 21:13:22;;;;;;;20.55;14.32;;;;;;;22.12;59.29;100216.09;21005457;28;20040;-79
2022/11/05 21:23:22;;;;;;;20.80;12.93;;;;;;;22.15;58.85;100221.09;20993415;27;20111;-76
2022/11/05 21:33:23;;;;;;;18.98;12.75;;;;;;;22.18;58.93;100231.41;20981410;28;20043;-78
2022/11/05 21:43:23;;;;;;;22.75;12.27;;;;;;;22.14;58.37;100224.72;20986220;28;20129;-77
2022/11/05 22:03:49;;;;;;;16.42;10.32;;;;;;;22.04;58.72;100237.00;21019898;28;20040;-88
2022/11/05 22:13:51;;;;;;;14.32;10.05;;;;;;;22.00;59.28;100238.22;21012002;28;22039;-90
2022/11/05 22:23:52;;;;;;;13.93;9.63;;;;;;;21.93;59.65;100235.25;21021462;28;20043;-89
2022/11/05 22:33:53;;;;;;;14.82;9.50;;;;;;;21.89;60.10;100241.75;20972545;28;20040;-89
2022/11/05 22:43:54;;;;;;;10.93;8.52;;;;;;;21.84;59.82;100244.75;21023292;28;20054;-83
2022/11/05 22:53:55;;;;;;;13.05;8.57;;;;;;;21.84;59.57;100255.31;20997604;28;20044;-82
2022/11/05 23:03:57;;;;;;;10.68;7.85;;;;;;;21.82;59.80;100251.13;20985532;28;20033;-81
2022/11/05 23:13:57;;;;;;;10.73;7.63;;;;;;;21.83;59.69;100264.16;21003082;28;20040;-81
2022/11/05 23:24:04;;;;;;;10.10;7.18;;;;;;;21.79;59.68;100265.38;20990121;28;20031;-81
2022/11/05 23:34:04;;;;;;;9.32;6.88;;;;;;;21.79;59.43;100265.38;21007315;28;20048;-81
2022/11/05 23:54:24;;;;;;;10.10;6.68;;;;;;;21.73;59.63;100273.81;21002547;28;20052;-83
